createdAt,value
2022-11-04T00:01:06.732Z,2.75
2022-11-04T00:04:12.360Z,4.55
2022-11-04T00:07:34.298Z,4.55
2022-11-04T00:10:55.025Z,3.45
2022-11-04T00:13:58.025Z,4.25
2022-11-04T00:17:19.101Z,3.88
2022-11-04T00:20:39.655Z,3.38
2022-11-04T00:24:00.290Z,7.85
2022-11-04T00:27:20.765Z,3.60
2022-11-04T00:30:23.076Z,4.22
2022-11-04T00:33:28.221Z,4.50
2022-11-04T00:36:30.559Z,3.58
2022-11-04T00:39:32.810Z,4.07
2022-11-04T00:42:35.519Z,3.30
2022-11-04T00:45:40.848Z,2.97
2022-11-04T00:48:42.834Z,3.20
2022-11-04T00:51:45.113Z,3.28
2022-11-04T00:54:47.170Z,3.55
2022-11-04T00:57:49.473Z,3.65
2022-11-04T01:00:52.609Z,4.72
2022-11-04T01:03:56.170Z,5.22
2022-11-04T01:06:58.552Z,5.18
2022-11-04T01:10:00.881Z,4.22
2022-11-04T01:13:03.157Z,4.32
2022-11-04T01:16:08.486Z,4.22
2022-11-04T01:19:11.917Z,4.75
2022-11-04T01:22:14.304Z,4.50
2022-11-04T01:25:16.709Z,5.97
2022-11-04T01:28:18.860Z,5.43
2022-11-04T01:31:23.672Z,6.45
2022-11-04T01:34:25.717Z,5.15
2022-11-04T01:37:27.703Z,4.43
2022-11-04T01:40:30.204Z,4.28
2022-11-04T01:43:51.524Z,4.30
2022-11-04T01:46:54.864Z,4.43
2022-11-04T01:50:06.083Z,4.68
2022-11-04T01:53:16.187Z,5.40
2022-11-04T01:56:20.549Z,5.88
2022-11-04T02:02:30.780Z,5.53
2022-11-04T02:05:33.334Z,7.63
2022-11-04T02:08:36.512Z,6.90
2022-11-04T02:11:57.253Z,8.98
2022-11-04T02:15:00.724Z,8.93
2022-11-04T02:18:14.389Z,9.15
2022-11-04T02:21:22.397Z,9.85
2022-11-04T02:24:55.301Z,9.77
2022-11-04T02:28:34.872Z,11.65
2022-11-04T02:32:00.956Z,12.73
2022-11-04T02:35:39.319Z,12.10
2022-11-04T02:39:00.642Z,11.60
2022-11-04T02:42:22.421Z,11.20
2022-11-04T02:45:45.779Z,10.88
2022-11-04T02:49:02.443Z,6.20
2022-11-04T02:52:12.058Z,6.13
2022-11-04T02:55:22.038Z,4.35
2022-11-04T02:58:35.744Z,6.10
2022-11-04T03:01:42.286Z,5.53
2022-11-04T03:04:50.858Z,5.75
2022-11-04T03:07:56.393Z,5.28
2022-11-04T03:11:11.814Z,4.28
2022-11-04T03:17:43.185Z,4.28
2022-11-04T03:20:49.015Z,4.77
2022-11-04T03:23:51.326Z,4.22
2022-11-04T03:27:03.132Z,4.20
2022-11-04T03:30:11.787Z,5.78
2022-11-04T03:33:27.391Z,3.78
2022-11-04T03:36:30.446Z,4.45
2022-11-04T03:39:33.556Z,5.05
2022-11-04T03:42:41.115Z,4.27
2022-11-04T03:45:43.869Z,4.68
2022-11-04T03:48:47.549Z,4.50
2022-11-04T03:51:51.290Z,4.00
2022-11-04T03:54:54.109Z,6.05
2022-11-04T03:58:03.259Z,4.17
2022-11-04T04:01:27.761Z,4.87
2022-11-04T04:04:40.555Z,5.45
2022-11-04T04:07:48.189Z,4.77
2022-11-04T04:11:24.289Z,5.87
2022-11-04T04:14:42.356Z,3.87
2022-11-04T04:17:52.369Z,5.43
2022-11-04T04:20:56.095Z,5.60
2022-11-04T04:27:31.610Z,4.73
2022-11-04T04:30:39.581Z,5.00
2022-11-04T04:33:41.762Z,4.30
2022-11-04T04:37:14.863Z,5.60
2022-11-04T04:40:39.601Z,5.17
2022-11-04T04:44:02.035Z,4.10
2022-11-04T04:47:05.942Z,6.30
2022-11-04T04:50:09.193Z,3.05
2022-11-04T04:53:12.042Z,4.93
2022-11-04T04:56:14.115Z,5.53
2022-11-04T04:59:16.239Z,3.90
2022-11-04T05:02:18.534Z,3.03
2022-11-04T05:05:21.259Z,4.37
2022-11-04T05:08:23.403Z,4.00
2022-11-04T05:11:27.312Z,3.93
2022-11-04T05:14:30.669Z,4.55
2022-11-04T05:17:32.948Z,4.17
2022-11-04T05:20:38.479Z,4.40
2022-11-04T05:23:41.173Z,3.97
2022-11-04T05:26:43.479Z,3.33
2022-11-04T05:29:45.892Z,3.90
2022-11-04T05:32:48.323Z,4.80
2022-11-04T05:35:50.611Z,5.33
2022-11-04T05:38:57.426Z,4.57
2022-11-04T05:42:01.212Z,3.00
2022-11-04T05:45:04.940Z,3.13
2022-11-04T05:48:07.310Z,4.65
2022-11-04T05:51:14.400Z,3.70
2022-11-04T05:54:16.397Z,3.73
2022-11-04T05:57:18.684Z,3.67
2022-11-04T06:00:20.902Z,3.30
2022-11-04T06:03:23.100Z,4.00
2022-11-04T06:06:27.971Z,3.07
2022-11-04T06:09:42.112Z,2.90
2022-11-04T06:12:44.371Z,3.40
2022-11-04T06:15:46.394Z,3.67
2022-11-04T06:18:48.674Z,2.90
2022-11-04T06:21:50.780Z,3.67
2022-11-04T06:24:53.041Z,4.13
2022-11-04T06:27:56.507Z,2.93
2022-11-04T06:31:00.475Z,3.03
2022-11-04T06:34:03.188Z,2.65
2022-11-04T06:37:05.437Z,3.27
2022-11-04T06:40:08.429Z,3.63
2022-11-04T06:43:10.800Z,3.10
2022-11-04T06:46:43.276Z,4.17
2022-11-04T06:49:46.474Z,4.03
2022-11-04T06:52:48.562Z,4.57
2022-11-04T06:55:52.281Z,3.97
2022-11-04T06:58:54.971Z,2.70
2022-11-04T07:01:57.315Z,5.43
2022-11-04T07:05:00.658Z,3.47
2022-11-04T07:08:02.740Z,3.83
2022-11-04T07:11:05.412Z,3.90
2022-11-04T07:14:09.484Z,4.78
2022-11-04T07:17:12.128Z,3.27
2022-11-04T07:20:14.246Z,2.90
2022-11-04T07:23:16.455Z,4.53
2022-11-04T07:26:18.859Z,3.23
2022-11-04T07:29:21.005Z,3.53
2022-11-04T07:32:23.057Z,3.57
2022-11-04T07:35:25.155Z,4.67
2022-11-04T07:38:27.272Z,4.00
2022-11-04T07:41:30.326Z,2.88
2022-11-04T07:44:41.468Z,5.90
2022-11-04T07:47:44.088Z,3.63
2022-11-04T07:50:46.165Z,4.97
2022-11-04T07:53:48.308Z,4.10
2022-11-04T07:56:50.335Z,4.93
2022-11-04T07:59:52.388Z,4.85
2022-11-04T08:02:54.541Z,4.65
2022-11-04T08:05:58.432Z,4.03
2022-11-04T08:09:00.565Z,3.05
2022-11-04T08:12:04.629Z,3.47
2022-11-04T08:15:08.112Z,2.80
2022-11-04T08:18:10.696Z,3.17
2022-11-04T08:21:13.668Z,3.50
2022-11-04T08:24:16.676Z,3.17
2022-11-04T08:27:19.028Z,4.43
2022-11-04T08:30:21.455Z,2.70
2022-11-04T08:33:28.507Z,3.83
2022-11-04T08:36:34.482Z,2.55
2022-11-04T08:39:36.656Z,3.22
2022-11-04T08:42:40.182Z,2.13
2022-11-04T08:45:45.360Z,4.68
2022-11-04T08:48:49.633Z,2.20
2022-11-04T08:55:02.767Z,2.13
2022-11-04T08:58:05.030Z,2.58
2022-11-04T09:01:08.075Z,3.28
2022-11-04T09:04:12.671Z,3.63
2022-11-04T09:07:14.867Z,2.47
2022-11-04T09:10:25.539Z,2.78
2022-11-04T09:13:28.166Z,2.30
2022-11-04T09:16:33.732Z,3.53
2022-11-04T09:19:36.739Z,2.78
2022-11-04T09:22:45.775Z,2.20
2022-11-04T09:25:50.441Z,3.28
2022-11-04T09:28:57.721Z,2.05
2022-11-04T09:32:04.379Z,2.53
2022-11-04T09:35:06.591Z,2.67
2022-11-04T09:38:08.760Z,1.80
2022-11-04T09:41:41.211Z,1.92
2022-11-04T09:48:27.817Z,2.63
2022-11-04T09:51:53.203Z,3.03
2022-11-04T09:55:00.823Z,2.80
2022-11-04T09:58:04.634Z,3.00
2022-11-04T10:01:21.899Z,2.45
2022-11-04T10:04:55.150Z,2.97
2022-11-04T10:11:22.242Z,2.30
2022-11-04T10:14:39.683Z,2.58
2022-11-04T10:17:50.834Z,3.10
2022-11-04T10:21:25.186Z,2.35
2022-11-04T10:24:43.220Z,2.15
2022-11-04T10:27:48.362Z,2.78
2022-11-04T10:30:52.107Z,2.40
2022-11-04T10:37:02.397Z,3.55
2022-11-04T10:40:25.409Z,2.33
2022-11-04T10:43:37.148Z,2.00
2022-11-04T10:46:59.846Z,2.47
2022-11-04T10:50:39.172Z,2.33
2022-11-04T10:53:41.541Z,3.08
2022-11-04T10:56:57.058Z,2.17
2022-11-04T11:00:01.920Z,2.40
2022-11-04T11:03:32.724Z,2.80
2022-11-04T11:06:37.288Z,2.38
2022-11-04T11:09:53.395Z,2.20
2022-11-04T11:13:07.428Z,2.45
2022-11-04T11:19:25.540Z,2.95
2022-11-04T11:22:39.870Z,2.63
2022-11-04T11:25:51.162Z,2.67
2022-11-04T11:29:02.451Z,2.17
2022-11-04T11:32:05.325Z,2.78
2022-11-04T11:35:16.977Z,2.42
2022-11-04T11:38:22.058Z,1.75
2022-11-04T11:41:31.714Z,2.95
2022-11-04T11:44:44.471Z,2.55
2022-11-04T11:47:47.948Z,2.55
2022-11-04T11:51:00.348Z,3.72
2022-11-04T11:54:23.297Z,3.15
2022-11-04T12:01:25.658Z,2.00
2022-11-04T12:11:48.011Z,2.53
2022-11-04T12:15:20.885Z,2.03
2022-11-04T12:18:43.413Z,2.38
2022-11-04T12:22:04.220Z,2.35
2022-11-04T12:25:09.081Z,2.05
2022-11-04T12:28:44.750Z,2.15
2022-11-04T12:32:25.661Z,1.67
2022-11-04T12:36:09.556Z,2.38
2022-11-04T12:39:43.363Z,2.38
2022-11-04T12:43:07.231Z,2.28
2022-11-04T12:46:22.621Z,4.00
2022-11-04T12:49:36.724Z,2.00
2022-11-04T12:53:08.157Z,2.80
2022-11-04T12:56:12.481Z,3.13
2022-11-04T12:59:23.408Z,3.38
2022-11-04T13:02:44.068Z,3.15
2022-11-04T13:06:05.666Z,2.88
2022-11-04T13:09:18.583Z,2.97
2022-11-04T13:12:25.498Z,3.63
2022-11-04T13:15:31.097Z,2.20
2022-11-04T13:18:37.647Z,2.75
2022-11-04T13:21:46.657Z,2.28
2022-11-04T13:25:18.067Z,3.53
2022-11-04T13:28:22.444Z,2.17
2022-11-04T13:31:46.003Z,3.33
2022-11-04T13:35:02.062Z,1.98
2022-11-04T13:38:12.751Z,2.00
2022-11-04T13:41:42.138Z,2.03
2022-11-04T13:44:47.104Z,2.90
2022-11-04T13:47:58.621Z,3.33
2022-11-04T13:51:06.929Z,3.88
2022-11-04T13:54:31.792Z,2.08
2022-11-04T14:01:35.959Z,2.10
2022-11-04T14:04:43.277Z,2.15
2022-11-04T14:08:10.673Z,2.20
2022-11-04T14:11:13.388Z,3.08
2022-11-04T14:14:19.932Z,2.35
2022-11-04T14:17:34.395Z,2.42
2022-11-04T14:20:37.215Z,2.60
2022-11-04T14:23:47.646Z,2.45
2022-11-04T14:26:51.045Z,2.60
2022-11-04T14:29:54.407Z,3.70
2022-11-04T14:33:00.807Z,3.47
2022-11-04T14:36:20.676Z,2.38
2022-11-04T14:39:28.197Z,2.75
2022-11-04T14:42:50.376Z,2.05
2022-11-04T14:45:56.338Z,3.10
2022-11-04T14:49:01.924Z,2.95
2022-11-04T14:52:05.262Z,2.35
2022-11-04T14:55:20.688Z,2.03
2022-11-04T14:58:25.287Z,2.05
2022-11-04T15:01:35.093Z,3.35
2022-11-04T15:04:37.713Z,2.97
2022-11-04T15:07:41.383Z,3.33
2022-11-04T15:10:49.002Z,3.42
2022-11-04T15:13:58.359Z,2.85
2022-11-04T15:17:02.056Z,4.15
2022-11-04T15:20:04.943Z,3.30
2022-11-04T15:23:12.446Z,3.20
2022-11-04T15:26:29.494Z,2.60
2022-11-04T15:29:32.553Z,4.60
2022-11-04T15:32:34.692Z,2.75
2022-11-04T15:35:43.569Z,3.00
2022-11-04T15:38:50.635Z,5.65
2022-11-04T15:42:16.220Z,2.70
2022-11-04T15:45:50.361Z,3.15
2022-11-04T15:49:04.716Z,3.90
2022-11-04T15:52:12.089Z,3.53
2022-11-04T15:55:27.082Z,4.78
2022-11-04T15:58:29.305Z,4.03
2022-11-04T16:01:33.052Z,3.60
2022-11-04T16:04:36.300Z,3.72
2022-11-04T16:07:46.632Z,5.18
2022-11-04T16:10:49.615Z,3.90
2022-11-04T16:13:51.756Z,5.13
2022-11-04T16:16:54.525Z,4.43
2022-11-04T16:20:00.852Z,4.88
2022-11-04T16:23:03.923Z,4.40
2022-11-04T16:26:07.389Z,3.95
2022-11-04T16:29:25.346Z,4.78
2022-11-04T16:32:32.025Z,4.53
2022-11-04T16:35:34.255Z,4.43
2022-11-04T16:38:38.151Z,4.20
2022-11-04T16:41:41.390Z,5.45
2022-11-04T16:44:48.514Z,5.25
2022-11-04T16:47:50.858Z,5.20
2022-11-04T16:50:53.121Z,4.22
2022-11-04T16:53:55.270Z,6.00
2022-11-04T16:56:59.212Z,4.78
2022-11-04T17:00:01.578Z,3.90
2022-11-04T17:03:21.806Z,4.47
2022-11-04T17:06:24.349Z,5.47
2022-11-04T17:09:27.662Z,5.13
2022-11-04T17:12:30.345Z,6.20
2022-11-04T17:15:32.532Z,5.90
2022-11-04T17:18:35.348Z,5.72
2022-11-04T17:21:37.520Z,6.22
2022-11-04T17:24:39.644Z,5.35
2022-11-04T17:27:42.105Z,5.68
2022-11-04T17:30:45.140Z,6.82
2022-11-04T17:33:47.698Z,5.40
2022-11-04T17:36:49.761Z,6.55
2022-11-04T17:39:52.134Z,5.97
2022-11-04T17:43:12.953Z,5.75
2022-11-04T17:46:34.113Z,5.93
2022-11-04T17:49:39.516Z,6.80
2022-11-04T17:52:42.584Z,5.93
2022-11-04T17:55:44.857Z,5.60
2022-11-04T17:58:47.490Z,4.22
2022-11-04T18:01:53.159Z,5.77
2022-11-04T18:04:55.640Z,6.35
2022-11-04T18:07:58.711Z,6.22
2022-11-04T18:11:02.404Z,5.97
2022-11-04T18:14:06.269Z,7.00
2022-11-04T18:17:08.454Z,6.22
2022-11-04T18:20:15.452Z,5.88
2022-11-04T18:23:17.677Z,9.18
2022-11-04T18:26:19.938Z,6.65
2022-11-04T18:29:23.031Z,5.55
2022-11-04T18:32:25.635Z,5.60
2022-11-04T18:35:27.764Z,5.35
2022-11-04T18:38:29.876Z,5.88
2022-11-04T18:41:32.222Z,5.10
2022-11-04T18:44:34.377Z,4.82
2022-11-04T18:47:36.803Z,6.72
2022-11-04T18:50:38.922Z,4.15
2022-11-04T18:53:41.158Z,4.47
2022-11-04T18:56:43.967Z,3.60
2022-11-04T18:59:46.466Z,4.05
2022-11-04T19:02:48.664Z,5.32
2022-11-04T19:05:50.778Z,5.13
2022-11-04T19:08:56.499Z,5.00
2022-11-04T19:12:27.755Z,4.73
2022-11-04T19:15:30.329Z,5.15
2022-11-04T19:18:32.866Z,5.83
2022-11-04T19:21:35.525Z,5.13
2022-11-04T19:24:38.474Z,4.15
2022-11-04T19:27:40.811Z,4.80
2022-11-04T19:30:43.278Z,4.87
2022-11-04T19:33:45.893Z,5.37
2022-11-04T19:36:48.130Z,6.03
2022-11-04T19:39:50.195Z,6.20
2022-11-04T19:43:10.840Z,4.63
2022-11-04T19:46:12.838Z,5.43
2022-11-04T19:49:17.039Z,5.37
2022-11-04T19:52:19.534Z,5.65
2022-11-04T19:55:24.397Z,6.93
2022-11-04T19:58:26.537Z,5.50
2022-11-04T20:01:29.014Z,5.70
2022-11-04T20:04:31.255Z,4.93
2022-11-04T20:07:33.767Z,7.07
2022-11-04T20:10:39.449Z,6.07
2022-11-04T20:13:44.645Z,4.10
2022-11-04T20:16:47.527Z,6.33
2022-11-04T20:19:49.557Z,5.80
2022-11-04T20:22:51.863Z,6.53
2022-11-04T20:25:54.084Z,6.17
2022-11-04T20:28:58.444Z,7.13
2022-11-04T20:32:00.535Z,6.78
2022-11-04T20:35:12.702Z,6.97
2022-11-04T20:38:14.726Z,6.07
2022-11-04T20:41:20.658Z,7.73
2022-11-04T20:44:22.899Z,7.70
2022-11-04T20:47:25.084Z,5.43
2022-11-04T20:50:29.642Z,8.55
2022-11-04T20:53:31.748Z,10.07
2022-11-04T20:56:36.054Z,8.17
2022-11-04T20:59:38.419Z,8.02
2022-11-04T21:05:45.545Z,7.97
2022-11-04T21:08:48.525Z,8.47
2022-11-04T21:11:51.409Z,9.10
2022-11-04T21:14:56.241Z,8.20
2022-11-04T21:17:58.533Z,8.97
2022-11-04T21:21:04.959Z,6.27
2022-11-04T21:24:08.201Z,7.20
2022-11-04T21:27:10.310Z,7.87
2022-11-04T21:30:13.361Z,7.97
2022-11-04T21:33:16.194Z,8.83
2022-11-04T21:36:18.455Z,9.90
2022-11-04T21:39:23.779Z,8.93
2022-11-04T21:42:25.890Z,8.63
2022-11-04T21:45:28.565Z,7.40
2022-11-04T21:48:32.812Z,5.93
2022-11-04T21:51:35.014Z,7.10
2022-11-04T21:54:38.304Z,7.03
2022-11-04T21:57:40.430Z,6.47
2022-11-04T22:00:42.730Z,7.70
2022-11-04T22:03:49.229Z,7.03
2022-11-04T22:06:51.302Z,5.27
2022-11-04T22:09:53.551Z,6.53
2022-11-04T22:12:56.405Z,6.03
2022-11-04T22:15:58.765Z,6.17
2022-11-04T22:19:03.108Z,6.83
2022-11-04T22:22:05.235Z,5.85
2022-11-04T22:25:08.077Z,5.47
2022-11-04T22:28:10.272Z,6.97
2022-11-04T22:31:33.632Z,7.83
2022-11-04T22:34:35.688Z,6.40
2022-11-04T22:37:37.959Z,6.73
2022-11-04T22:40:41.049Z,6.27
2022-11-04T22:43:43.296Z,6.13
2022-11-04T22:46:45.623Z,6.07
2022-11-04T22:49:47.784Z,6.50
2022-11-04T22:52:50.143Z,5.20
2022-11-04T22:55:52.922Z,4.93
2022-11-04T22:58:55.533Z,6.03
2022-11-04T23:01:57.733Z,7.43
2022-11-04T23:05:03.045Z,8.43
2022-11-04T23:08:05.500Z,9.03
2022-11-04T23:11:37.009Z,8.17
2022-11-04T23:14:57.775Z,8.63
2022-11-04T23:18:18.671Z,7.00
2022-11-04T23:21:40.989Z,9.53
2022-11-04T23:25:02.811Z,6.63
2022-11-04T23:28:23.726Z,7.87
2022-11-04T23:31:25.957Z,8.17
2022-11-04T23:34:47.010Z,7.43
2022-11-04T23:37:49.098Z,7.97
2022-11-04T23:41:13.098Z,8.00
2022-11-04T23:44:35.236Z,14.77
2022-11-04T23:48:05.972Z,11.33
2022-11-04T23:51:29.614Z,9.43
2022-11-04T23:54:50.474Z,8.57
2022-11-04T23:58:11.458Z,6.63
